Time;durP1;ratioP1;P1;durP2;ratioP2;P2;SDS_P1;SDS_P2;PMS_P1;PMS_P2;Temp;Humidity;BMP_temperature;BMP_pressure;BME280_temperature;BME280_humidity;BME280_pressure;Samples;Min_cycle;Max_cycle;Signal;HPM_P1;HPM_P2
2023/06/03 00:02:06;;;;;;;4.65;1.10;;;;;;;;;;4991670;28;20041;-63
2023/06/03 00:04:32;;;;;;;2.22;0.70;;;;;;;;;;4990107;28;21181;-63
2023/06/03 00:06:59;;;;;;;2.25;0.90;;;;;;;;;;4991689;28;20035;-63
2023/06/03 00:09:25;;;;;;;2.58;0.80;;;;;;;;;;4992325;28;20038;-63
2023/06/03 00:11:52;;;;;;;2.20;0.73;;;;;;;;;;4992041;28;20033;-63
2023/06/03 00:14:18;;;;;;;2.95;0.93;;;;;;;;;;4992049;28;20859;-63
2023/06/03 00:16:48;;;;;;;3.10;0.80;;;;;;;;;;4991545;28;21597;-64
2023/06/03 00:19:15;;;;;;;3.55;0.75;;;;;;;;;;4991957;28;20034;-63
2023/06/03 00:21:45;;;;;;;2.13;0.70;;;;;;;;;;4992361;28;20033;-63
2023/06/03 00:24:11;;;;;;;2.63;0.82;;;;;;;;;;4990494;28;20037;-63
2023/06/03 00:26:37;;;;;;;2.40;1.10;;;;;;;;;;4991824;28;20505;-63
2023/06/03 00:29:03;;;;;;;2.08;0.82;;;;;;;;;;4990514;28;20095;-63
2023/06/03 00:31:29;;;;;;;1.58;0.70;;;;;;;;;;4991604;28;20104;-63
2023/06/03 00:33:55;;;;;;;3.58;0.93;;;;;;;;;;4991050;28;20084;-63
2023/06/03 00:36:21;;;;;;;3.40;0.98;;;;;;;;;;4991524;28;20038;-63
2023/06/03 00:38:47;;;;;;;2.40;0.77;;;;;;;;;;4990669;28;20026;-63
2023/06/03 00:41:13;;;;;;;2.65;0.77;;;;;;;;;;4991900;28;20029;-63
2023/06/03 00:43:40;;;;;;;2.70;0.70;;;;;;;;;;4990811;28;20032;-64
2023/06/03 00:46:07;;;;;;;2.40;0.88;;;;;;;;;;4991432;28;20058;-63
2023/06/03 00:48:33;;;;;;;3.80;1.20;;;;;;;;;;4990723;28;20060;-63
2023/06/03 00:50:59;;;;;;;2.72;0.95;;;;;;;;;;4990481;28;20033;-63
2023/06/03 00:53:26;;;;;;;1.65;0.70;;;;;;;;;;4990963;28;20037;-63
2023/06/03 00:55:52;;;;;;;2.28;0.70;;;;;;;;;;4990602;28;20038;-63
2023/06/03 00:58:18;;;;;;;2.92;0.88;;;;;;;;;;4991907;28;20029;-63
2023/06/03 01:00:44;;;;;;;2.95;0.98;;;;;;;;;;4990193;28;20042;-64
2023/06/03 01:03:13;;;;;;;1.50;0.70;;;;;;;;;;4990625;28;20029;-63
2023/06/03 01:05:40;;;;;;;3.50;1.10;;;;;;;;;;4990812;28;20646;-63
2023/06/03 01:08:13;;;;;;;3.80;0.77;;;;;;;;;;4989480;28;20036;-63
2023/06/03 01:10:49;;;;;;;2.78;0.90;;;;;;;;;;4990480;28;20034;-63
2023/06/03 01:13:24;;;;;;;4.60;1.25;;;;;;;;;;4989813;28;20030;-63
2023/06/03 01:15:54;;;;;;;2.88;0.68;;;;;;;;;;4990626;28;20037;-63
2023/06/03 01:18:20;;;;;;;3.28;0.80;;;;;;;;;;4990053;28;20038;-63
2023/06/03 01:20:48;;;;;;;3.50;1.00;;;;;;;;;;4989801;28;20515;-63
2023/06/03 01:23:20;;;;;;;2.00;0.68;;;;;;;;;;4989473;28;20034;-63
2023/06/03 01:25:50;;;;;;;1.88;0.73;;;;;;;;;;4990663;28;20029;-63
2023/06/03 01:28:16;;;;;;;4.05;0.88;;;;;;;;;;4990493;28;20045;-63
2023/06/03 01:30:42;;;;;;;2.63;0.90;;;;;;;;;;4988959;28;20434;-64
2023/06/03 01:33:09;;;;;;;1.65;0.77;;;;;;;;;;4990929;28;20038;-63
2023/06/03 01:35:35;;;;;;;4.68;1.10;;;;;;;;;;4990905;28;21842;-63
2023/06/03 01:38:01;;;;;;;1.73;0.65;;;;;;;;;;4989141;28;20049;-64
2023/06/03 01:40:28;;;;;;;2.00;0.75;;;;;;;;;;4988865;28;20038;-63
2023/06/03 01:42:54;;;;;;;2.17;0.65;;;;;;;;;;4987582;28;20026;-63
2023/06/03 01:45:20;;;;;;;4.72;1.08;;;;;;;;;;4987645;28;20495;-63
2023/06/03 01:47:46;;;;;;;3.40;0.85;;;;;;;;;;4988581;28;20038;-63
2023/06/03 01:50:12;;;;;;;2.33;0.75;;;;;;;;;;4988729;28;20107;-63
2023/06/03 01:52:38;;;;;;;4.18;0.77;;;;;;;;;;4989102;28;20038;-63
2023/06/03 01:55:04;;;;;;;3.92;1.00;;;;;;;;;;4990242;28;20123;-63
2023/06/03 01:57:30;;;;;;;2.90;0.82;;;;;;;;;;4990237;28;20488;-63
2023/06/03 01:59:56;;;;;;;2.70;1.02;;;;;;;;;;4990331;28;20036;-63
2023/06/03 02:02:22;;;;;;;3.22;1.05;;;;;;;;;;4989127;28;20038;-64
2023/06/03 02:04:49;;;;;;;2.22;0.98;;;;;;;;;;4990027;28;20052;-63
2023/06/03 02:07:15;;;;;;;3.30;1.20;;;;;;;;;;4989122;28;20851;-63
2023/06/03 02:09:41;;;;;;;1.83;0.82;;;;;;;;;;4989372;28;20076;-63
2023/06/03 02:12:07;;;;;;;2.78;0.85;;;;;;;;;;4989939;28;20779;-63
2023/06/03 02:14:33;;;;;;;4.28;1.02;;;;;;;;;;4989834;28;20045;-63
2023/06/03 02:17:02;;;;;;;3.20;0.90;;;;;;;;;;4990271;28;20041;-63
2023/06/03 02:19:28;;;;;;;2.10;0.90;;;;;;;;;;4989673;28;21064;-63
2023/06/03 02:21:58;;;;;;;2.90;0.65;;;;;;;;;;4989819;28;20064;-63
2023/06/03 02:24:28;;;;;;;2.90;0.85;;;;;;;;;;4989867;28;20040;-64
2023/06/03 02:26:54;;;;;;;3.95;1.30;;;;;;;;;;4989623;28;20030;-63
2023/06/03 02:29:22;;;;;;;3.13;1.00;;;;;;;;;;4994107;28;20133;-63
2023/06/03 02:31:52;;;;;;;1.52;0.60;;;;;;;;;;4988252;28;21893;-63
2023/06/03 02:34:18;;;;;;;3.53;0.85;;;;;;;;;;4989618;28;20044;-63
2023/06/03 02:36:45;;;;;;;2.50;1.08;;;;;;;;;;4988788;28;20022;-63
2023/06/03 02:39:11;;;;;;;3.08;1.00;;;;;;;;;;4989589;28;20119;-63
2023/06/03 02:41:38;;;;;;;5.13;1.05;;;;;;;;;;4989150;28;20515;-63
2023/06/03 02:44:04;;;;;;;2.25;0.90;;;;;;;;;;4988645;28;20049;-63
2023/06/03 02:46:31;;;;;;;4.80;1.05;;;;;;;;;;4989255;28;20151;-63
2023/06/03 02:48:57;;;;;;;5.78;1.02;;;;;;;;;;4990206;28;20038;-63
2023/06/03 02:51:23;;;;;;;2.30;0.85;;;;;;;;;;4989363;28;20030;-63
2023/06/03 02:53:50;;;;;;;1.38;0.65;;;;;;;;;;5004191;28;20053;-63
2023/06/03 02:56:16;;;;;;;2.10;0.75;;;;;;;;;;4989113;28;20480;-63
2023/06/03 02:58:42;;;;;;;1.90;0.68;;;;;;;;;;4989894;28;20121;-62
2023/06/03 03:01:08;;;;;;;3.10;0.80;;;;;;;;;;4988831;28;20044;-63
2023/06/03 03:03:36;;;;;;;3.58;0.90;;;;;;;;;;4988777;28;20042;-63
2023/06/03 03:06:06;;;;;;;3.25;1.00;;;;;;;;;;4988442;28;20118;-63
2023/06/03 03:08:33;;;;;;;2.58;0.90;;;;;;;;;;4988847;28;20037;-63
2023/06/03 03:10:59;;;;;;;8.38;1.45;;;;;;;;;;4988475;28;20025;-63
2023/06/03 03:13:25;;;;;;;2.45;0.80;;;;;;;;;;4988703;28;20140;-63
2023/06/03 03:15:51;;;;;;;4.15;1.30;;;;;;;;;;4988302;28;20033;-63
2023/06/03 03:18:17;;;;;;;2.13;0.90;;;;;;;;;;4990295;28;20080;-63
2023/06/03 03:20:43;;;;;;;2.80;1.05;;;;;;;;;;4992860;28;20042;-63
2023/06/03 03:23:12;;;;;;;6.10;1.45;;;;;;;;;;4991978;28;20040;-63
2023/06/03 03:25:40;;;;;;;5.05;1.33;;;;;;;;;;4992259;28;20034;-63
2023/06/03 03:28:06;;;;;;;2.53;1.42;;;;;;;;;;4992634;28;20033;-63
2023/06/03 03:30:33;;;;;;;4.40;1.15;;;;;;;;;;4993172;28;20434;-63
2023/06/03 03:32:59;;;;;;;2.63;0.90;;;;;;;;;;4992342;28;20038;-63
2023/06/03 03:35:25;;;;;;;2.35;0.90;;;;;;;;;;4992619;28;20053;-62
2023/06/03 03:38:05;;;;;;;2.97;1.00;;;;;;;;;;4992167;28;20668;-63
2023/06/03 03:40:32;;;;;;;4.53;1.13;;;;;;;;;;4992292;28;20080;-63
2023/06/03 03:42:59;;;;;;;2.40;0.85;;;;;;;;;;4991918;28;20033;-63
2023/06/03 03:45:34;;;;;;;3.90;0.98;;;;;;;;;;4990776;28;20033;-63
2023/06/03 03:48:02;;;;;;;3.38;0.80;;;;;;;;;;4989587;28;20594;-63
2023/06/03 03:50:37;;;;;;;2.30;1.00;;;;;;;;;;4989692;28;20041;-62
2023/06/03 03:53:04;;;;;;;2.10;0.80;;;;;;;;;;4990400;28;20026;-62
2023/06/03 03:55:30;;;;;;;4.60;1.20;;;;;;;;;;4990465;28;20049;-63
2023/06/03 03:57:56;;;;;;;2.53;0.95;;;;;;;;;;4991370;28;20037;-63
2023/06/03 04:00:23;;;;;;;2.67;0.98;;;;;;;;;;4991963;28;20033;-63
2023/06/03 04:02:51;;;;;;;3.60;0.90;;;;;;;;;;4991614;28;20042;-63
2023/06/03 04:05:17;;;;;;;4.45;1.52;;;;;;;;;;4991870;28;20057;-63
2023/06/03 04:07:46;;;;;;;2.95;1.05;;;;;;;;;;4990921;28;20030;-63
2023/06/03 04:10:12;;;;;;;4.10;0.98;;;;;;;;;;4990299;28;20042;-63
2023/06/03 04:12:38;;;;;;;3.47;1.08;;;;;;;;;;4991177;28;20121;-63
2023/06/03 04:15:05;;;;;;;3.55;1.35;;;;;;;;;;4991973;28;20026;-63
2023/06/03 04:17:31;;;;;;;1.60;0.80;;;;;;;;;;4990970;28;20037;-63
2023/06/03 04:19:58;;;;;;;3.42;1.42;;;;;;;;;;4992126;28;20096;-63
2023/06/03 04:22:25;;;;;;;4.15;1.27;;;;;;;;;;4991478;28;20077;-63
2023/06/03 04:25:02;;;;;;;5.18;1.10;;;;;;;;;;4991766;28;20116;-63
2023/06/03 04:27:28;;;;;;;2.58;0.88;;;;;;;;;;4991363;28;20048;-63
2023/06/03 04:29:55;;;;;;;1.65;0.70;;;;;;;;;;4988329;28;20069;-63
2023/06/03 04:32:21;;;;;;;3.78;1.00;;;;;;;;;;4989410;28;20096;-63
2023/06/03 04:34:52;;;;;;;2.03;0.85;;;;;;;;;;4989120;28;20040;-63
2023/06/03 04:37:19;;;;;;;4.32;1.10;;;;;;;;;;4989932;28;20109;-63
2023/06/03 04:39:45;;;;;;;3.08;1.00;;;;;;;;;;4990553;28;20042;-63
2023/06/03 04:42:12;;;;;;;3.40;1.55;;;;;;;;;;4988580;28;20650;-63
2023/06/03 04:44:39;;;;;;;2.85;1.00;;;;;;;;;;4987028;28;20065;-64
2023/06/03 04:47:10;;;;;;;1.80;0.75;;;;;;;;;;4990187;28;20038;-63
2023/06/03 04:49:37;;;;;;;3.80;1.20;;;;;;;;;;4989614;28;20065;-63
2023/06/03 04:52:10;;;;;;;3.90;1.00;;;;;;;;;;4989399;28;20038;-64
2023/06/03 04:54:36;;;;;;;;;;;;;;;;;;4987125;28;20034;-63
2023/06/03 04:57:02;;;;;;;2.10;0.90;;;;;;;;;;4990165;28;20020;-63
2023/06/03 04:59:28;;;;;;;2.03;0.82;;;;;;;;;;4989681;28;20025;-63
2023/06/03 05:01:55;;;;;;;4.18;1.73;;;;;;;;;;4989614;28;21628;-63
2023/06/03 05:04:22;;;;;;;3.95;1.27;;;;;;;;;;4990397;28;20049;-63
2023/06/03 05:06:51;;;;;;;4.93;1.15;;;;;;;;;;4990202;28;20099;-63
2023/06/03 05:09:18;;;;;;;4.97;1.17;;;;;;;;;;4990564;28;21670;-63
2023/06/03 05:11:44;;;;;;;4.82;1.13;;;;;;;;;;4991452;28;20564;-63
2023/06/03 05:14:11;;;;;;;2.40;1.00;;;;;;;;;;4990681;28;20053;-63
2023/06/03 05:16:37;;;;;;;5.32;1.25;;;;;;;;;;4991063;28;20033;-63
2023/06/03 05:19:04;;;;;;;4.22;1.02;;;;;;;;;;4990671;28;20463;-63
2023/06/03 05:21:30;;;;;;;4.07;1.25;;;;;;;;;;4990502;28;20112;-63
2023/06/03 05:23:56;;;;;;;3.45;1.02;;;;;;;;;;4991498;28;20950;-63
2023/06/03 05:26:22;;;;;;;3.65;0.93;;;;;;;;;;4991438;28;20037;-63
2023/06/03 05:28:48;;;;;;;4.30;1.17;;;;;;;;;;4990722;28;20030;-63
2023/06/03 05:31:15;;;;;;;3.88;1.02;;;;;;;;;;4991625;28;20922;-63
2023/06/03 05:33:41;;;;;;;5.70;1.38;;;;;;;;;;4991193;28;20112;-64
2023/06/03 05:36:08;;;;;;;4.10;1.30;;;;;;;;;;4988930;28;20212;-63
2023/06/03 05:38:34;;;;;;;3.15;1.08;;;;;;;;;;4990834;28;20034;-63
2023/06/03 05:41:02;;;;;;;2.85;0.93;;;;;;;;;;4990169;28;21583;-63
2023/06/03 05:43:29;;;;;;;2.75;1.00;;;;;;;;;;4990550;28;20017;-64
2023/06/03 05:45:55;;;;;;;1.95;0.88;;;;;;;;;;4991229;28;20121;-63
2023/06/03 05:48:21;;;;;;;2.63;0.98;;;;;;;;;;4990488;28;20062;-64
2023/06/03 05:50:56;;;;;;;4.63;1.17;;;;;;;;;;4988946;28;21043;-63
2023/06/03 05:53:24;;;;;;;3.33;1.02;;;;;;;;;;4987911;28;21578;-63
2023/06/03 05:55:50;;;;;;;4.70;0.88;;;;;;;;;;4989334;28;20030;-63
2023/06/03 05:58:20;;;;;;;2.65;0.75;;;;;;;;;;4989276;28;20038;-63
2023/06/03 06:00:47;;;;;;;3.78;1.42;;;;;;;;;;4988921;28;20531;-63
2023/06/03 06:03:13;;;;;;;4.03;0.98;;;;;;;;;;4988481;28;20038;-63
2023/06/03 06:05:40;;;;;;;3.42;0.90;;;;;;;;;;4988115;28;20696;-64
2023/06/03 06:08:06;;;;;;;2.85;1.00;;;;;;;;;;4988786;28;20044;-63
2023/06/03 06:10:32;;;;;;;5.68;1.15;;;;;;;;;;4989220;28;20030;-63
2023/06/03 06:12:58;;;;;;;2.90;0.93;;;;;;;;;;4988461;28;20033;-63
2023/06/03 06:15:24;;;;;;;2.30;0.90;;;;;;;;;;4989236;28;20032;-63
2023/06/03 06:17:50;;;;;;;3.17;0.90;;;;;;;;;;4988250;28;20041;-64
2023/06/03 06:20:16;;;;;;;3.65;1.05;;;;;;;;;;4988848;28;20053;-64
2023/06/03 06:22:42;;;;;;;3.13;1.30;;;;;;;;;;4989371;28;20086;-63
2023/06/03 06:25:09;;;;;;;4.20;0.95;;;;;;;;;;4988912;28;21306;-63
2023/06/03 06:27:35;;;;;;;4.97;1.40;;;;;;;;;;4988865;28;20125;-63
2023/06/03 06:30:02;;;;;;;5.95;1.25;;;;;;;;;;4989600;28;20124;-64
2023/06/03 06:32:31;;;;;;;4.90;1.35;;;;;;;;;;4989840;28;20048;-63
2023/06/03 06:34:57;;;;;;;3.13;1.02;;;;;;;;;;4989190;28;21989;-63
2023/06/03 06:37:23;;;;;;;3.08;1.00;;;;;;;;;;4988273;28;20054;-62
2023/06/03 06:39:51;;;;;;;2.83;0.80;;;;;;;;;;4988618;28;20030;-63
2023/06/03 06:42:40;;;;;;;5.10;1.30;;;;;;;;;;4988255;28;20054;-62
2023/06/03 06:45:14;;;;;;;2.10;0.73;;;;;;;;;;4981097;28;20049;-63
2023/06/03 06:47:40;;;;;;;3.05;0.82;;;;;;;;;;4988372;28;20513;-63
2023/06/03 06:50:09;;;;;;;4.15;0.90;;;;;;;;;;4986255;28;20046;-63
2023/06/03 06:52:35;;;;;;;3.17;0.85;;;;;;;;;;4987707;28;20255;-63
2023/06/03 06:55:02;;;;;;;3.67;1.00;;;;;;;;;;4992738;28;20033;-63
2023/06/03 06:57:30;;;;;;;3.53;1.00;;;;;;;;;;4992451;28;20548;-63
2023/06/03 06:59:56;;;;;;;2.65;0.98;;;;;;;;;;4993297;28;20029;-63
2023/06/03 07:02:22;;;;;;;3.05;1.08;;;;;;;;;;4992680;28;20030;-63
2023/06/03 07:04:52;;;;;;;3.20;0.88;;;;;;;;;;4993224;28;20093;-63
2023/06/03 07:07:18;;;;;;;5.78;1.17;;;;;;;;;;4993701;28;20080;-63
2023/06/03 07:09:44;;;;;;;4.93;1.17;;;;;;;;;;4994097;28;20030;-63
2023/06/03 07:12:10;;;;;;;3.50;0.90;;;;;;;;;;4993333;28;20201;-62
2023/06/03 07:14:37;;;;;;;6.55;1.00;;;;;;;;;;4993463;28;21005;-62
2023/06/03 07:17:03;;;;;;;3.53;0.90;;;;;;;;;;4991879;28;20032;-62
2023/06/03 07:19:34;;;;;;;3.97;0.88;;;;;;;;;;4993532;28;20133;-63
2023/06/03 07:22:01;;;;;;;3.80;0.98;;;;;;;;;;4994153;28;20056;-63
2023/06/03 07:24:27;;;;;;;2.03;0.90;;;;;;;;;;4994463;28;20029;-63
2023/06/03 07:26:53;;;;;;;4.30;1.00;;;;;;;;;;4994135;28;20033;-63
2023/06/03 07:29:19;;;;;;;2.45;0.82;;;;;;;;;;4994185;28;20033;-63
2023/06/03 07:31:47;;;;;;;2.08;0.82;;;;;;;;;;4993397;28;20042;-63
2023/06/03 07:34:16;;;;;;;2.22;0.90;;;;;;;;;;4991974;28;20060;-63
2023/06/03 07:36:42;;;;;;;2.70;0.95;;;;;;;;;;4992424;28;20057;-62
2023/06/03 07:39:10;;;;;;;2.30;0.80;;;;;;;;;;4992638;28;20088;-63
2023/06/03 07:41:36;;;;;;;3.03;0.98;;;;;;;;;;4993566;28;20052;-63
2023/06/03 07:44:05;;;;;;;3.55;1.00;;;;;;;;;;4993203;28;20038;-62
2023/06/03 07:46:57;;;;;;;5.40;0.90;;;;;;;;;;4993241;28;20034;-63
2023/06/03 07:49:24;;;;;;;3.55;1.30;;;;;;;;;;4991798;28;20045;-63
2023/06/03 07:51:51;;;;;;;2.40;0.90;;;;;;;;;;4993541;28;20119;-63
2023/06/03 07:54:18;;;;;;;4.97;1.13;;;;;;;;;;4991914;28;20025;-63
2023/06/03 07:56:44;;;;;;;4.57;1.10;;;;;;;;;;4991426;28;20076;-63
2023/06/03 07:59:11;;;;;;;2.47;0.90;;;;;;;;;;4992129;28;20025;-63
2023/06/03 08:01:37;;;;;;;3.22;0.90;;;;;;;;;;4990381;28;20281;-62
2023/06/03 08:04:05;;;;;;;2.55;0.90;;;;;;;;;;4988539;28;20064;-63
2023/06/03 08:06:32;;;;;;;3.70;1.02;;;;;;;;;;4991629;28;20025;-62
2023/06/03 08:08:59;;;;;;;2.80;1.00;;;;;;;;;;4992733;28;20037;-63
2023/06/03 08:11:25;;;;;;;2.30;0.90;;;;;;;;;;4992256;28;20943;-63
2023/06/03 08:13:54;;;;;;;5.03;0.98;;;;;;;;;;4993042;28;20030;-63
2023/06/03 08:16:21;;;;;;;3.13;1.00;;;;;;;;;;4993325;28;20217;-63
2023/06/03 08:18:48;;;;;;;8.80;1.10;;;;;;;;;;4993000;28;20077;-63
2023/06/03 08:21:14;;;;;;;4.53;1.00;;;;;;;;;;4992909;28;20088;-62
2023/06/03 08:23:41;;;;;;;6.57;1.08;;;;;;;;;;4993645;28;20080;-63
2023/06/03 08:26:08;;;;;;;3.72;0.90;;;;;;;;;;4993517;28;20029;-63
2023/06/03 08:28:34;;;;;;;4.35;1.42;;;;;;;;;;4993929;28;20639;-62
2023/06/03 08:31:00;;;;;;;1.95;0.88;;;;;;;;;;4993347;28;20037;-63
2023/06/03 08:33:26;;;;;;;2.95;0.98;;;;;;;;;;4992021;28;20433;-62
2023/06/03 08:35:52;;;;;;;2.28;0.80;;;;;;;;;;4990520;28;20045;-62
2023/06/03 08:38:18;;;;;;;4.25;0.90;;;;;;;;;;4991342;28;20392;-63
2023/06/03 08:40:49;;;;;;;3.03;0.95;;;;;;;;;;4992357;28;20045;-63
2023/06/03 08:43:15;;;;;;;3.85;0.95;;;;;;;;;;4992835;28;20040;-63
2023/06/03 08:46:02;;;;;;;2.08;0.93;;;;;;;;;;4993308;28;20037;-63
2023/06/03 08:48:42;;;;;;;4.13;0.90;;;;;;;;;;4992833;28;20168;-62
2023/06/03 08:51:09;;;;;;;1.77;0.70;;;;;;;;;;4992599;28;20037;-63
2023/06/03 08:53:41;;;;;;;2.92;0.80;;;;;;;;;;4992877;28;20029;-63
2023/06/03 08:56:08;;;;;;;3.45;0.90;;;;;;;;;;4992252;28;20613;-63
2023/06/03 08:58:36;;;;;;;2.97;0.75;;;;;;;;;;4992489;28;20044;-62
2023/06/03 09:01:03;;;;;;;2.42;0.85;;;;;;;;;;4991558;28;20038;-63
2023/06/03 09:03:29;;;;;;;2.45;0.68;;;;;;;;;;4991160;28;20069;-62
2023/06/03 09:05:55;;;;;;;1.70;0.70;;;;;;;;;;4991010;28;20060;-63
2023/06/03 09:08:22;;;;;;;3.47;0.90;;;;;;;;;;4992534;28;20045;-62
2023/06/03 09:10:49;;;;;;;1.52;0.50;;;;;;;;;;4991208;28;20037;-63
2023/06/03 09:13:16;;;;;;;3.80;0.90;;;;;;;;;;4991152;28;20033;-63
2023/06/03 09:15:43;;;;;;;2.03;0.77;;;;;;;;;;4991238;28;20403;-63
2023/06/03 09:18:09;;;;;;;2.80;0.60;;;;;;;;;;4989905;28;20018;-63
2023/06/03 09:20:36;;;;;;;3.55;1.13;;;;;;;;;;4991186;28;20869;-63
2023/06/03 09:23:02;;;;;;;3.55;1.00;;;;;;;;;;4991056;28;20048;-63
2023/06/03 09:25:28;;;;;;;2.72;0.80;;;;;;;;;;4997302;28;20066;-62
2023/06/03 09:27:56;;;;;;;4.75;0.77;;;;;;;;;;4998908;28;20112;-62
2023/06/03 09:30:22;;;;;;;2.70;0.75;;;;;;;;;;4998956;28;20071;-63
2023/06/03 09:32:48;;;;;;;2.10;0.70;;;;;;;;;;4998607;28;20904;-63
2023/06/03 09:35:14;;;;;;;3.42;0.90;;;;;;;;;;4997664;28;20484;-63
2023/06/03 09:37:56;;;;;;;1.73;0.73;;;;;;;;;;4998507;28;21108;-63
2023/06/03 09:40:29;;;;;;;3.03;0.80;;;;;;;;;;4998977;28;20022;-62
2023/06/03 09:42:56;;;;;;;2.65;0.82;;;;;;;;;;4998734;28;20529;-63
2023/06/03 09:45:32;;;;;;;3.25;0.90;;;;;;;;;;4998733;28;20026;-63
2023/06/03 09:47:59;;;;;;;2.80;0.93;;;;;;;;;;4998836;28;20053;-63
2023/06/03 09:50:26;;;;;;;2.08;0.80;;;;;;;;;;4998481;28;20044;-63
2023/06/03 09:52:52;;;;;;;3.40;0.88;;;;;;;;;;4997697;28;20057;-63
2023/06/03 09:55:19;;;;;;;1.52;0.68;;;;;;;;;;4998483;28;20021;-62
2023/06/03 09:58:04;;;;;;;2.03;0.80;;;;;;;;;;4998527;28;20057;-63
2023/06/03 10:00:31;;;;;;;0.95;0.55;;;;;;;;;;4998690;28;20041;-63
2023/06/03 10:03:06;;;;;;;2.63;0.73;;;;;;;;;;4997058;28;20038;-63
2023/06/03 10:05:33;;;;;;;2.65;0.90;;;;;;;;;;4995936;28;20272;-63
2023/06/03 10:07:59;;;;;;;3.08;0.88;;;;;;;;;;4995723;28;20385;-63
2023/06/03 10:10:26;;;;;;;4.38;0.90;;;;;;;;;;4996118;28;20029;-63
2023/06/03 10:12:52;;;;;;;3.58;1.13;;;;;;;;;;4995559;28;20813;-63
2023/06/03 10:15:37;;;;;;;2.65;1.08;;;;;;;;;;4996797;28;20161;-63
2023/06/03 10:18:04;;;;;;;3.30;0.90;;;;;;;;;;4997669;28;20064;-64
2023/06/03 10:20:37;;;;;;;5.03;0.90;;;;;;;;;;4998706;28;20037;-63
2023/06/03 10:23:04;;;;;;;5.22;1.33;;;;;;;;;;4997919;28;20026;-63
2023/06/03 10:25:32;;;;;;;2.50;1.10;;;;;;;;;;4997967;28;20045;-64
2023/06/03 10:28:00;;;;;;;2.13;0.88;;;;;;;;;;4997985;28;21072;-63
2023/06/03 10:30:27;;;;;;;2.30;0.90;;;;;;;;;;4997754;28;20030;-63
2023/06/03 10:32:53;;;;;;;4.13;0.90;;;;;;;;;;4997614;28;20105;-62
2023/06/03 10:35:21;;;;;;;2.05;0.80;;;;;;;;;;4998067;28;20030;-63
2023/06/03 10:37:47;;;;;;;1.50;0.70;;;;;;;;;;4998104;28;20037;-64
2023/06/03 10:40:14;;;;;;;2.97;0.82;;;;;;;;;;4997910;28;20041;-63
2023/06/03 10:42:41;;;;;;;3.42;0.93;;;;;;;;;;4997193;28;20653;-63
2023/06/03 10:45:07;;;;;;;2.83;0.85;;;;;;;;;;4997460;28;20488;-63
2023/06/03 10:47:34;;;;;;;2.60;0.80;;;;;;;;;;4997771;28;20138;-64
2023/06/03 10:50:08;;;;;;;2.13;0.70;;;;;;;;;;4998155;28;20497;-63
2023/06/03 10:52:53;;;;;;;2.92;0.90;;;;;;;;;;4997976;28;20052;-63
2023/06/03 10:55:33;;;;;;;3.08;1.02;;;;;;;;;;4998022;28;20277;-63
2023/06/03 10:58:22;;;;;;;4.05;0.93;;;;;;;;;;4998016;28;20085;-64
2023/06/03 11:00:59;;;;;;;3.47;1.00;;;;;;;;;;4990820;28;20049;-63
2023/06/03 11:03:32;;;;;;;2.28;1.10;;;;;;;;;;4998330;28;20077;-64
2023/06/03 11:05:58;;;;;;;;;;;;;;;;;;4997489;28;20116;-63
2023/06/03 11:08:43;;;;;;;7.97;1.00;;;;;;;;;;4997879;28;19937;-64
2023/06/03 11:11:09;;;;;;;2.17;0.77;;;;;;;;;;4997872;28;20042;-63
2023/06/03 11:13:42;;;;;;;4.53;1.13;;;;;;;;;;4997942;28;20037;-63
2023/06/03 11:16:08;;;;;;;;;;;;;;;;;;4997526;28;20061;-63
2023/06/03 11:18:34;;;;;;;2.90;0.77;;;;;;;;;;4997556;28;20052;-63
2023/06/03 11:21:00;;;;;;;1.77;0.73;;;;;;;;;;4995759;28;20045;-62
2023/06/03 11:23:42;;;;;;;2.45;0.80;;;;;;;;;;4996448;28;20038;-63
2023/06/03 11:26:27;;;;;;;2.13;0.88;;;;;;;;;;4996853;28;20030;-64
2023/06/03 11:28:53;;;;;;;2.42;0.80;;;;;;;;;;4997385;28;20068;-63
2023/06/03 11:31:21;;;;;;;4.68;1.15;;;;;;;;;;4997331;28;20037;-63
2023/06/03 11:34:06;;;;;;;2.10;0.98;;;;;;;;;;4997840;28;20034;-63
2023/06/03 11:36:51;;;;;;;1.42;0.80;;;;;;;;;;4996689;28;20033;-63
2023/06/03 11:39:17;;;;;;;2.95;0.93;;;;;;;;;;4997003;28;20021;-63
2023/06/03 11:42:02;;;;;;;3.88;0.98;;;;;;;;;;5000833;28;20060;-63
2023/06/03 11:44:28;;;;;;;2.83;0.90;;;;;;;;;;5000047;28;20426;-63
2023/06/03 11:46:54;;;;;;;4.22;1.15;;;;;;;;;;5000432;28;20061;-62
2023/06/03 11:49:23;;;;;;;2.63;0.85;;;;;;;;;;5000815;28;20045;-62
2023/06/03 11:51:54;;;;;;;3.22;0.80;;;;;;;;;;4999761;28;20889;-63
2023/06/03 11:54:21;;;;;;;2.95;1.08;;;;;;;;;;5000317;28;20041;-63
2023/06/03 11:56:48;;;;;;;2.30;0.80;;;;;;;;;;5000650;28;20029;-63
2023/06/03 11:59:16;;;;;;;1.98;0.63;;;;;;;;;;4999635;28;21795;-63
2023/06/03 12:01:54;;;;;;;1.95;0.80;;;;;;;;;;4999601;28;20148;-62
2023/06/03 12:04:20;;;;;;;2.13;0.85;;;;;;;;;;4996013;28;20060;-63
2023/06/03 12:06:46;;;;;;;4.30;1.00;;;;;;;;;;5000582;28;20038;-63
2023/06/03 12:09:19;;;;;;;3.35;1.02;;;;;;;;;;4999650;28;20038;-64
2023/06/03 12:11:45;;;;;;;2.05;0.70;;;;;;;;;;4999740;28;20045;-64
2023/06/03 12:14:22;;;;;;;2.45;0.88;;;;;;;;;;4998140;28;20037;-63
2023/06/03 12:16:48;;;;;;;1.50;0.75;;;;;;;;;;4996142;28;20033;-62
2023/06/03 12:19:14;;;;;;;3.60;0.93;;;;;;;;;;4997435;28;20591;-63
2023/06/03 12:21:41;;;;;;;2.65;0.90;;;;;;;;;;4998987;28;20041;-63
2023/06/03 12:24:13;;;;;;;2.97;1.00;;;;;;;;;;4998531;28;20504;-63
2023/06/03 12:26:41;;;;;;;2.42;0.82;;;;;;;;;;4998697;28;20038;-63
2023/06/03 12:29:08;;;;;;;2.72;0.90;;;;;;;;;;5000091;28;20769;-63
2023/06/03 12:31:35;;;;;;;3.17;0.80;;;;;;;;;;4999007;28;20766;-63
2023/06/03 12:34:02;;;;;;;2.97;0.77;;;;;;;;;;4999311;28;20041;-63
2023/06/03 12:36:46;;;;;;;1.33;0.65;;;;;;;;;;4999652;28;20041;-63
2023/06/03 12:39:12;;;;;;;4.35;1.15;;;;;;;;;;4999835;28;20038;-63
2023/06/03 12:41:38;;;;;;;2.67;0.90;;;;;;;;;;4999912;28;20025;-63
2023/06/03 12:44:05;;;;;;;2.20;0.70;;;;;;;;;;4998292;28;20038;-63
2023/06/03 12:46:31;;;;;;;3.33;1.00;;;;;;;;;;5000245;28;20645;-63
2023/06/03 12:49:12;;;;;;;4.07;1.00;;;;;;;;;;4999851;28;20036;-63
2023/06/03 12:51:38;;;;;;;3.88;1.23;;;;;;;;;;4999461;28;20033;-62
2023/06/03 12:54:05;;;;;;;4.13;1.60;;;;;;;;;;4999982;28;20061;-62
2023/06/03 12:56:32;;;;;;;2.88;1.20;;;;;;;;;;5000070;28;20040;-63
2023/06/03 12:58:58;;;;;;;4.47;1.15;;;;;;;;;;4999634;28;20056;-62
2023/06/03 13:01:24;;;;;;;2.97;1.17;;;;;;;;;;5000381;28;20022;-62
2023/06/03 13:03:57;;;;;;;3.25;1.08;;;;;;;;;;4996561;28;20148;-63
2023/06/03 13:06:23;;;;;;;4.50;1.60;;;;;;;;;;4987932;28;20052;-63
2023/06/03 13:08:51;;;;;;;3.63;0.90;;;;;;;;;;4988742;28;20113;-62
2023/06/03 13:11:21;;;;;;;9.77;5.68;;;;;;;;;;4988761;28;20195;-63
2023/06/03 13:13:47;;;;;;;9.48;5.05;;;;;;;;;;4988178;28;20161;-62
2023/06/03 13:16:14;;;;;;;5.20;2.80;;;;;;;;;;4988714;28;20113;-63
2023/06/03 13:18:40;;;;;;;4.10;1.23;;;;;;;;;;4989475;28;20037;-62
2023/06/03 13:21:06;;;;;;;2.95;1.02;;;;;;;;;;4988229;28;20029;-62
2023/06/03 13:23:32;;;;;;;5.00;1.00;;;;;;;;;;4988846;28;20087;-63
2023/06/03 13:25:59;;;;;;;4.45;1.40;;;;;;;;;;4988667;28;20937;-62
2023/06/03 13:28:25;;;;;;;4.15;1.52;;;;;;;;;;4990053;28;21296;-63
2023/06/03 13:30:51;;;;;;;2.22;0.85;;;;;;;;;;4990616;28;20040;-63
2023/06/03 13:33:17;;;;;;;1.77;0.80;;;;;;;;;;4990438;28;20639;-63
2023/06/03 13:35:44;;;;;;;5.50;0.90;;;;;;;;;;4996799;28;20026;-63
2023/06/03 13:38:11;;;;;;;3.22;1.10;;;;;;;;;;4995810;28;20037;-63
2023/06/03 13:40:37;;;;;;;2.67;0.85;;;;;;;;;;4997839;28;20448;-62
2023/06/03 13:43:03;;;;;;;3.85;0.93;;;;;;;;;;4997387;28;20081;-64
2023/06/03 13:45:30;;;;;;;4.07;1.60;;;;;;;;;;4997350;28;20048;-63
2023/06/03 13:47:56;;;;;;;3.78;1.23;;;;;;;;;;4997223;28;20025;-63
2023/06/03 13:50:22;;;;;;;2.63;0.80;;;;;;;;;;4996949;28;20540;-63
2023/06/03 13:52:48;;;;;;;2.92;0.90;;;;;;;;;;4996431;28;20566;-63
2023/06/03 13:55:15;;;;;;;2.45;0.90;;;;;;;;;;4997196;28;20044;-64
2023/06/03 13:57:41;;;;;;;3.00;1.48;;;;;;;;;;4996532;28;20509;-63
2023/06/03 14:00:08;;;;;;;5.25;0.90;;;;;;;;;;4996520;28;20429;-63
2023/06/03 14:02:34;;;;;;;3.42;1.00;;;;;;;;;;4978985;28;20039;-63
2023/06/03 14:05:00;;;;;;;3.65;0.93;;;;;;;;;;4994443;28;20049;-63
2023/06/03 14:07:26;;;;;;;2.08;1.00;;;;;;;;;;4996788;28;20025;-63
2023/06/03 14:09:53;;;;;;;2.78;0.98;;;;;;;;;;4996307;28;20037;-63
2023/06/03 14:12:20;;;;;;;5.28;1.45;;;;;;;;;;4996006;28;20038;-63
2023/06/03 14:14:46;;;;;;;4.70;1.30;;;;;;;;;;4994813;28;20041;-64
2023/06/03 14:17:12;;;;;;;3.10;1.20;;;;;;;;;;4996258;28;20030;-64
2023/06/03 14:19:38;;;;;;;5.30;1.65;;;;;;;;;;4996335;28;20306;-64
2023/06/03 14:22:04;;;;;;;3.95;1.30;;;;;;;;;;4995842;28;20116;-63
2023/06/03 14:24:30;;;;;;;2.80;1.13;;;;;;;;;;4994488;28;20030;-64
2023/06/03 14:26:56;;;;;;;3.65;0.85;;;;;;;;;;4996262;28;20100;-63
2023/06/03 14:29:22;;;;;;;2.97;1.05;;;;;;;;;;4995743;28;20096;-63
2023/06/03 14:31:48;;;;;;;3.30;1.10;;;;;;;;;;4995900;28;20103;-64
2023/06/03 14:34:14;;;;;;;3.85;0.95;;;;;;;;;;4995600;28;20029;-63
2023/06/03 14:36:41;;;;;;;4.15;1.38;;;;;;;;;;4994162;28;20029;-63
2023/06/03 14:39:07;;;;;;;3.47;1.10;;;;;;;;;;4990905;28;20506;-63
2023/06/03 14:41:33;;;;;;;12.40;1.45;;;;;;;;;;4995257;28;20042;-64
2023/06/03 14:43:59;;;;;;;6.18;0.90;;;;;;;;;;4994718;28;20381;-64
2023/06/03 14:46:26;;;;;;;5.35;1.20;;;;;;;;;;4996519;28;20084;-63
2023/06/03 14:48:52;;;;;;;3.35;0.90;;;;;;;;;;4997570;28;20058;-64